Time;durP1;ratioP1;P1;durP2;ratioP2;P2;SDS_P1;SDS_P2;PMS_P1;PMS_P2;Temp;Humidity;BMP_temperature;BMP_pressure;BME280_temperature;BME280_humidity;BME280_pressure;Samples;Min_cycle;Max_cycle;Signal;HPM_P1;HPM_P2
2023/06/02 00:00:38;;;;;;;7.40;5.20;;;12.20;99.90;;;;;;7315045;32;20233;-55
2023/06/02 00:04:40;;;;;;;9.10;5.20;;;12.30;99.90;;;;;;7317774;32;20151;-55
2023/06/02 00:08:42;;;;;;;10.88;5.12;;;12.20;99.90;;;;;;7315649;32;20198;-55
2023/06/02 00:12:44;;;;;;;6.82;5.18;;;12.10;99.90;;;;;;7298983;32;20510;-56
2023/06/02 00:16:47;;;;;;;9.38;5.60;;;12.10;99.90;;;;;;7315388;32;20123;-56
2023/06/02 00:20:49;;;;;;;11.98;5.65;;;12.10;99.90;;;;;;7299771;32;20185;-55
2023/06/02 00:24:52;;;;;;;7.62;6.03;;;12.00;99.90;;;;;;7320964;32;20149;-55
2023/06/02 00:28:55;;;;;;;9.65;6.40;;;12.10;99.90;;;;;;7315979;32;20147;-56
2023/06/02 00:32:58;;;;;;;9.40;6.70;;;12.00;99.90;;;;;;7301386;32;20107;-55
2023/06/02 00:37:00;;;;;;;9.93;7.45;;;11.90;99.90;;;;;;7311664;32;20103;-55
2023/06/02 00:41:01;;;;;;;11.77;8.18;;;11.90;99.90;;;;;;7313214;32;20261;-55
2023/06/02 00:45:04;;;;;;;15.35;10.85;;;11.80;99.90;;;;;;7313581;32;20155;-55
2023/06/02 00:49:06;;;;;;;15.57;11.73;;;11.80;99.90;;;;;;7316948;32;20115;-56
2023/06/02 00:53:09;;;;;;;21.17;14.20;;;11.80;99.90;;;;;;7318182;32;20099;-55
2023/06/02 00:57:11;;;;;;;19.30;14.23;;;11.80;99.90;;;;;;7314758;32;20111;-56
2023/06/02 01:01:18;;;;;;;15.55;12.80;;;11.70;99.90;;;;;;7314549;32;20168;-55
2023/06/02 01:05:20;;;;;;;;;;;11.70;99.90;;;;;;7315790;32;20417;-55
2023/06/02 01:09:23;;;;;;;17.02;12.57;;;11.80;99.90;;;;;;7316295;32;20209;-55
2023/06/02 01:13:25;;;;;;;20.33;12.30;;;11.60;99.90;;;;;;7314904;32;20166;-55
2023/06/02 01:17:31;;;;;;;18.98;12.32;;;11.70;99.90;;;;;;7315840;32;20147;-55
2023/06/02 01:21:37;;;;;;;18.17;13.70;;;11.70;99.90;;;;;;7313313;32;20261;-56
2023/06/02 01:25:39;;;;;;;17.65;11.77;;;11.60;99.90;;;;;;7314641;32;20198;-55
2023/06/02 01:29:51;;;;;;;18.05;10.73;;;11.70;99.90;;;;;;7315683;32;20600;-55
2023/06/02 01:34:10;;;;;;;14.18;10.15;;;11.60;99.90;;;;;;7316058;32;20223;-55
2023/06/02 01:38:14;;;;;;;13.30;8.52;;;11.50;99.90;;;;;;7317459;32;20119;-55
2023/06/02 01:42:16;;;;;;;13.52;8.45;;;11.60;99.90;;;;;;7314625;32;20510;-56
2023/06/02 01:46:18;;;;;;;12.20;7.30;;;11.60;99.90;;;;;;7292079;32;20131;-55
2023/06/02 01:50:20;;;;;;;13.62;7.97;;;11.50;99.90;;;;;;7322682;32;20258;-55
2023/06/02 01:54:22;;;;;;;9.43;6.78;;;11.50;99.90;;;;;;7315163;32;20139;-55
2023/06/02 01:58:25;;;;;;;11.27;6.87;;;11.50;99.90;;;;;;7319072;32;20133;-57
2023/06/02 02:02:26;;;;;;;13.15;6.30;;;11.50;99.90;;;;;;7305742;32;21190;-55
2023/06/02 02:06:29;;;;;;;12.32;6.12;;;11.30;99.90;;;;;;7323488;32;20153;-56
2023/06/02 02:10:31;;;;;;;14.05;6.40;;;11.40;99.90;;;;;;7324370;32;20134;-55
2023/06/02 02:14:33;;;;;;;11.27;5.68;;;11.30;99.90;;;;;;7325923;32;20214;-56
2023/06/02 02:18:35;;;;;;;15.63;5.85;;;11.30;99.90;;;;;;7305947;32;20715;-55
2023/06/02 02:22:36;;;;;;;11.18;5.72;;;11.30;99.90;;;;;;7325407;32;20529;-57
2023/06/02 02:26:38;;;;;;;11.15;6.00;;;11.30;99.90;;;;;;7320310;32;20523;-55
2023/06/02 02:30:40;;;;;;;12.00;5.60;;;11.20;99.90;;;;;;7320160;32;20294;-55
2023/06/02 02:34:46;;;;;;;11.52;5.78;;;11.20;99.90;;;;;;7322514;32;20245;-56
2023/06/02 02:38:48;;;;;;;13.32;6.03;;;11.10;99.90;;;;;;7298177;32;20575;-55
2023/06/02 02:42:49;;;;;;;11.23;5.68;;;11.20;99.90;;;;;;7323169;32;20108;-56
2023/06/02 02:46:51;;;;;;;9.35;5.78;;;11.20;99.90;;;;;;7320179;32;20139;-56
2023/06/02 02:50:53;;;;;;;12.10;6.78;;;11.10;99.90;;;;;;7324270;32;20260;-55
2023/06/02 02:54:55;;;;;;;14.82;7.72;;;11.10;99.90;;;;;;7323123;32;20165;-55
2023/06/02 02:59:00;;;;;;;16.58;7.18;;;11.00;99.90;;;;;;7323533;32;20228;-56
2023/06/02 03:03:02;;;;;;;16.23;6.85;;;10.90;99.90;;;;;;7321416;32;20116;-56
2023/06/02 03:07:04;;;;;;;14.43;7.03;;;11.00;99.90;;;;;;7324270;32;20516;-56
2023/06/02 03:11:06;;;;;;;14.80;7.22;;;11.00;99.90;;;;;;7322609;32;20243;-56
2023/06/02 03:15:08;;;;;;;13.55;6.75;;;10.90;99.90;;;;;;7323056;32;20698;-56
2023/06/02 03:19:14;;;;;;;18.77;8.02;;;10.80;99.90;;;;;;7326582;32;20461;-56
2023/06/02 03:23:17;;;;;;;14.85;6.87;;;10.80;99.90;;;;;;7323165;32;20196;-55
2023/06/02 03:27:19;;;;;;;18.25;7.72;;;10.80;99.90;;;;;;7321110;32;20115;-55
2023/06/02 03:31:24;;;;;;;13.85;6.85;;;10.70;99.90;;;;;;7318015;32;20172;-56
2023/06/02 03:35:26;;;;;;;12.10;6.32;;;10.60;99.90;;;;;;7340326;32;21615;-56
2023/06/02 03:39:27;;;;;;;11.65;6.93;;;10.70;99.90;;;;;;7338506;32;20597;-56
2023/06/02 03:43:29;;;;;;;10.90;6.95;;;10.70;99.90;;;;;;7333066;32;20639;-55
2023/06/02 03:47:31;;;;;;;14.38;7.20;;;10.70;99.90;;;;;;7334281;32;20179;-55
2023/06/02 03:51:33;;;;;;;16.20;7.30;;;10.60;99.90;;;;;;7335093;32;20221;-55
2023/06/02 03:55:34;;;;;;;15.25;7.53;;;10.70;99.90;;;;;;7337067;32;20509;-55
2023/06/02 03:59:36;;;;;;;15.75;7.53;;;10.80;99.90;;;;;;7338878;32;20709;-55
2023/06/02 04:03:41;;;;;;;15.52;7.87;;;10.80;99.90;;;;;;7332387;32;20569;-55
2023/06/02 04:07:43;;;;;;;19.05;8.52;;;10.80;99.90;;;;;;7335496;32;20225;-54
2023/06/02 04:11:45;;;;;;;15.32;8.10;;;10.80;99.90;;;;;;7330472;32;20506;-55
2023/06/02 04:15:47;;;;;;;17.80;8.52;;;10.80;99.90;;;;;;7337244;32;20498;-54
2023/06/02 04:19:48;;;;;;;13.32;8.00;;;10.60;99.90;;;;;;7331213;32;20116;-55
2023/06/02 04:23:50;;;;;;;14.40;7.50;;;10.60;99.90;;;;;;7332150;32;20572;-55
2023/06/02 04:27:52;;;;;;;13.93;7.28;;;10.70;99.90;;;;;;7336045;32;20127;-55
2023/06/02 04:31:54;;;;;;;17.42;6.68;;;10.80;99.90;;;;;;7332226;32;20138;-56
2023/06/02 04:35:56;;;;;;;14.20;9.50;;;10.80;99.90;;;;;;7328901;32;20206;-57
2023/06/02 04:40:04;;;;;;;16.30;10.05;;;10.80;99.90;;;;;;7338451;32;20556;-55
2023/06/02 04:44:09;;;;;;;17.73;8.20;;;10.70;99.90;;;;;;7334197;32;20135;-56
2023/06/02 04:48:11;;;;;;;16.55;8.77;;;10.80;99.90;;;;;;7331180;32;20517;-56
2023/06/02 04:52:13;;;;;;;19.33;8.20;;;10.90;99.90;;;;;;7333310;32;20231;-57
2023/06/02 04:56:14;;;;;;;17.85;8.93;;;10.90;99.90;;;;;;7332609;32;20166;-57
2023/06/02 05:00:16;;;;;;;18.50;8.65;;;10.90;99.90;;;;;;7324100;32;20142;-57
2023/06/02 05:04:19;;;;;;;14.00;8.13;;;10.90;99.90;;;;;;7332547;32;20177;-57
2023/06/02 05:08:21;;;;;;;18.45;8.90;;;10.90;99.90;;;;;;7337580;32;20126;-56
2023/06/02 05:12:25;;;;;;;15.18;8.35;;;10.90;99.90;;;;;;7326605;32;20552;-56
2023/06/02 05:16:29;;;;;;;13.73;7.62;;;11.00;99.90;;;;;;7326558;32;20108;-57
2023/06/02 05:20:31;;;;;;;20.05;8.23;;;11.00;99.90;;;;;;7324530;32;20599;-57
2023/06/02 05:24:33;;;;;;;15.93;8.77;;;11.10;99.90;;;;;;7329950;32;20302;-56
2023/06/02 05:28:35;;;;;;;19.05;12.02;;;11.10;99.90;;;;;;7334318;32;20503;-57
2023/06/02 05:32:37;;;;;;;19.35;10.27;;;11.00;99.90;;;;;;7330198;32;20175;-56
2023/06/02 05:36:38;;;;;;;13.93;9.60;;;11.00;99.90;;;;;;7334236;32;20115;-57
2023/06/02 05:40:40;;;;;;;15.52;8.52;;;11.10;99.90;;;;;;7327009;32;20111;-56
2023/06/02 05:44:42;;;;;;;17.37;7.80;;;11.10;99.90;;;;;;7334788;32;20194;-56
2023/06/02 05:48:44;;;;;;;20.70;7.60;;;11.00;99.90;;;;;;7318718;32;20170;-55
2023/06/02 05:52:46;;;;;;;12.88;5.97;;;11.10;99.90;;;;;;7333136;32;20897;-57
2023/06/02 05:56:47;;;;;;;13.27;5.45;;;11.20;99.90;;;;;;7332888;32;20538;-55
2023/06/02 06:00:49;;;;;;;13.62;4.90;;;11.30;99.90;;;;;;7336602;32;20123;-56
2023/06/02 06:04:51;;;;;;;24.73;7.35;;;11.30;99.90;;;;;;7325136;32;20241;-55
2023/06/02 06:08:53;;;;;;;15.95;6.20;;;11.30;99.90;;;;;;7335747;32;20215;-55
2023/06/02 06:12:55;;;;;;;22.05;9.50;;;11.40;99.90;;;;;;7330738;32;20138;-57
2023/06/02 06:16:56;;;;;;;15.93;6.68;;;11.50;99.90;;;;;;7316753;32;20119;-56
2023/06/02 06:20:58;;;;;;;12.37;7.07;;;11.50;99.90;;;;;;7333222;32;20177;-56
2023/06/02 06:25:00;;;;;;;21.10;8.57;;;11.60;99.90;;;;;;7335558;32;20176;-56
2023/06/02 06:29:03;;;;;;;16.00;8.65;;;11.60;99.90;;;;;;7327643;32;20531;-56
2023/06/02 06:33:06;;;;;;;19.00;8.02;;;11.80;99.90;;;;;;7330329;32;20111;-56
2023/06/02 06:37:08;;;;;;;17.33;8.23;;;11.70;99.90;;;;;;7319517;32;20258;-56
2023/06/02 06:41:09;;;;;;;17.70;8.05;;;11.80;99.90;;;;;;7327744;32;20129;-55
2023/06/02 06:45:11;;;;;;;16.92;8.60;;;11.80;99.90;;;;;;7331396;32;20141;-57
2023/06/02 06:49:13;;;;;;;17.95;8.13;;;11.80;99.90;;;;;;7337591;32;20818;-56
2023/06/02 06:53:15;;;;;;;16.25;9.60;;;11.80;99.90;;;;;;7328784;32;20206;-58
2023/06/02 06:57:18;;;;;;;18.55;10.60;;;11.90;99.90;;;;;;7330324;32;20633;-57
2023/06/02 07:01:20;;;;;;;20.42;11.85;;;12.10;99.90;;;;;;7322462;32;20230;-57
2023/06/02 07:05:22;;;;;;;14.50;10.27;;;12.10;99.90;;;;;;7331470;32;20253;-57
2023/06/02 07:09:24;;;;;;;20.42;11.35;;;12.20;99.90;;;;;;7327305;32;20237;-57
2023/06/02 07:13:27;;;;;;;15.85;9.52;;;12.20;99.90;;;;;;7331100;32;20224;-56
2023/06/02 07:17:29;;;;;;;19.67;10.10;;;12.20;99.90;;;;;;7333494;32;20138;-56
2023/06/02 07:21:31;;;;;;;17.62;8.63;;;12.10;99.90;;;;;;7334520;32;20511;-56
2023/06/02 07:25:34;;;;;;;14.48;9.05;;;12.20;99.90;;;;;;7307249;32;20468;-56
2023/06/02 07:29:36;;;;;;;19.20;9.65;;;12.20;99.90;;;;;;7314199;32;20523;-57
2023/06/02 07:33:38;;;;;;;16.30;8.60;;;12.10;99.90;;;;;;7328318;32;20126;-56
2023/06/02 07:37:40;;;;;;;20.73;10.63;;;12.30;99.90;;;;;;7322851;32;20178;-57
2023/06/02 07:41:42;;;;;;;14.80;9.60;;;12.40;99.90;;;;;;7332242;32;20278;-56
2023/06/02 07:45:44;;;;;;;18.05;9.18;;;12.60;99.90;;;;;;7330373;32;20206;-56
2023/06/02 07:49:45;;;;;;;26.02;12.02;;;12.70;99.90;;;;;;7328886;32;20095;-57
2023/06/02 07:53:47;;;;;;;17.15;10.73;;;12.10;99.90;;;;;;7331112;32;20225;-57
2023/06/02 07:57:49;;;;;;;22.80;11.85;;;12.20;99.90;;;;;;7333149;32;20177;-57
2023/06/02 08:01:51;;;;;;;16.70;10.27;;;12.40;99.90;;;;;;7326728;32;20791;-56
2023/06/02 08:05:53;;;;;;;18.45;10.43;;;12.60;99.90;;;;;;7332506;32;20107;-55
2023/06/02 08:09:55;;;;;;;16.90;8.20;;;12.80;99.90;;;;;;7322652;32;20114;-56
2023/06/02 08:13:57;;;;;;;18.20;8.90;;;13.50;99.90;;;;;;7324785;32;20194;-56
2023/06/02 08:17:59;;;;;;;15.63;8.65;;;13.60;99.90;;;;;;7329579;32;20107;-56
2023/06/02 08:22:02;;;;;;;14.57;7.55;;;13.60;99.90;;;;;;7333390;32;20139;-56
2023/06/02 08:26:04;;;;;;;9.88;6.18;;;13.50;99.90;;;;;;7329906;32;20565;-57
2023/06/02 08:30:08;;;;;;;16.52;7.15;;;13.60;99.90;;;;;;7324052;32;20369;-58
2023/06/02 08:34:10;;;;;;;14.05;6.30;;;13.50;99.90;;;;;;7321056;32;20194;-56
2023/06/02 08:38:17;;;;;;;12.13;5.87;;;13.50;99.90;;;;;;7321428;32;20183;-58
2023/06/02 08:42:19;;;;;;;12.55;5.68;;;13.50;99.90;;;;;;7331755;32;20573;-58
2023/06/02 08:46:21;;;;;;;13.30;7.10;;;13.60;99.90;;;;;;7334505;32;20147;-57
2023/06/02 08:50:29;;;;;;;16.62;6.72;;;13.70;99.90;;;;;;7326448;32;20222;-58
2023/06/02 08:54:32;;;;;;;14.80;7.90;;;13.30;99.90;;;;;;7328319;32;20805;-57
2023/06/02 08:58:36;;;;;;;17.10;8.02;;;13.40;99.90;;;;;;7329744;32;20262;-57
2023/06/02 09:02:38;;;;;;;20.60;8.10;;;13.50;99.90;;;;;;7328035;32;20135;-57
2023/06/02 09:06:40;;;;;;;15.68;8.13;;;13.70;99.90;;;;;;7329223;32;20111;-56
2023/06/02 09:10:44;;;;;;;16.50;7.72;;;13.80;99.90;;;;;;7337099;32;20906;-56
2023/06/02 09:14:48;;;;;;;14.48;7.40;;;14.00;99.90;;;;;;7330789;32;20110;-57
2023/06/02 09:18:57;;;;;;;14.02;6.75;;;14.20;99.90;;;;;;7321990;32;20107;-57
2023/06/02 09:23:01;;;;;;;12.68;6.65;;;14.50;99.90;;;;;;7329008;32;20123;-56
2023/06/02 09:27:02;;;;;;;15.10;5.70;;;14.90;99.90;;;;;;7325487;32;20222;-56
2023/06/02 09:31:04;;;;;;;14.13;6.87;;;15.00;99.90;;;;;;7318397;32;20309;-57
2023/06/02 09:35:27;;;;;;;15.20;6.95;;;15.40;99.90;;;;;;7329209;32;20127;-57
2023/06/02 09:39:43;;;;;;;14.55;5.95;;;15.50;99.90;;;;;;7331847;32;20192;-56
2023/06/02 09:43:45;;;;;;;15.68;6.70;;;15.60;99.90;;;;;;7327870;32;20615;-56
2023/06/02 09:47:48;;;;;;;17.23;6.12;;;16.20;99.90;;;;;;7322044;32;20129;-56
2023/06/02 09:51:50;;;;;;;10.82;5.30;;;16.80;99.90;;;;;;7322763;32;20643;-57
2023/06/02 09:55:52;;;;;;;15.57;5.05;;;15.80;99.90;;;;;;7322114;32;20219;-56
2023/06/02 09:59:57;;;;;;;14.13;5.03;;;16.90;99.90;;;;;;7307606;32;20249;-57
2023/06/02 10:04:00;;;;;;;6.93;3.80;;;16.60;99.90;;;;;;7324701;32;20122;-55
2023/06/02 10:08:39;;;;;;;12.55;3.90;;;17.80;99.90;;;;;;7327130;32;20564;-56
2023/06/02 10:13:06;;;;;;;15.05;4.50;;;16.70;99.90;;;;;;7324295;32;20197;-56
2023/06/02 10:17:19;;;;;;;9.50;3.53;;;16.70;99.90;;;;;;7326792;32;20230;-56
2023/06/02 10:21:46;;;;;;;11.68;3.62;;;17.40;99.90;;;;;;7321881;32;20547;-56
2023/06/02 10:25:52;;;;;;;9.95;3.28;;;18.70;99.90;;;;;;7331967;32;20104;-57
2023/06/02 10:29:55;;;;;;;13.13;3.20;;;19.40;99.90;;;;;;7330062;32;20223;-57
2023/06/02 10:34:00;;;;;;;8.90;3.08;;;19.50;99.90;;;;;;7330221;32;20103;-57
2023/06/02 10:38:29;;;;;;;8.50;3.30;;;19.50;99.90;;;;;;7334549;32;20818;-56
2023/06/02 10:42:33;;;;;;;8.52;2.85;;;19.60;99.90;;;;;;7339538;32;20107;-56
2023/06/02 10:46:35;;;;;;;11.52;3.30;;;19.60;99.90;;;;;;7325288;32;20359;-56
2023/06/02 10:50:55;;;;;;;10.38;3.47;;;18.70;99.90;;;;;;7327788;32;20115;-56
2023/06/02 10:55:13;;;;;;;13.45;3.75;;;18.30;99.90;;;;;;7329530;32;20116;-57
2023/06/02 10:59:31;;;;;;;8.38;3.80;;;18.20;99.90;;;;;;7331728;32;20194;-57
2023/06/02 11:03:34;;;;;;;11.50;3.67;;;18.30;99.90;;;;;;7330095;32;20154;-57
2023/06/02 11:07:36;;;;;;;14.70;3.95;;;18.00;99.90;;;;;;7330435;32;20214;-57
2023/06/02 11:11:53;;;;;;;10.10;3.78;;;18.40;99.90;;;;;;7328514;32;20115;-55
2023/06/02 11:15:56;;;;;;;9.35;3.67;;;18.70;99.90;;;;;;7327506;32;20186;-57
2023/06/02 11:19:59;;;;;;;9.02;3.85;;;18.50;99.90;;;;;;7326984;32;20595;-57
2023/06/02 11:24:01;;;;;;;11.50;4.25;;;18.30;99.90;;;;;;7328931;32;20134;-56
2023/06/02 11:28:02;;;;;;;13.50;4.50;;;18.50;99.90;;;;;;7323049;32;20237;-56
2023/06/02 11:32:06;;;;;;;13.93;4.78;;;18.70;99.90;;;;;;7318813;32;20540;-58
2023/06/02 11:36:09;;;;;;;11.00;4.28;;;18.40;99.90;;;;;;7330528;32;20254;-56
2023/06/02 11:40:13;;;;;;;12.63;4.80;;;19.20;99.90;;;;;;7328107;32;20758;-58
2023/06/02 11:44:15;;;;;;;16.50;4.82;;;19.10;99.90;;;;;;7324117;32;20224;-59
2023/06/02 11:48:22;;;;;;;10.40;4.40;;;18.60;99.90;;;;;;7311515;32;20112;-59
2023/06/02 11:52:24;;;;;;;13.45;4.82;;;19.40;99.90;;;;;;7314275;32;20139;-60
2023/06/02 11:56:26;;;;;;;11.27;5.12;;;19.40;99.90;;;;;;7316917;32;21084;-59
2023/06/02 12:00:30;;;;;;;11.38;5.90;;;19.20;99.90;;;;;;7329730;32;20208;-59
2023/06/02 12:04:41;;;;;;;13.50;4.93;;;19.60;99.90;;;;;;7331838;32;20112;-58
2023/06/02 12:08:44;;;;;;;13.57;5.15;;;20.50;99.90;;;;;;7335189;32;20231;-55
2023/06/02 12:12:46;;;;;;;13.35;4.25;;;21.20;99.20;;;;;;7330686;32;20158;-61
2023/06/02 12:16:48;;;;;;;15.93;5.62;;;21.70;99.20;;;;;;7332748;32;20344;-56
2023/06/02 12:20:51;;;;;;;13.27;5.62;;;20.60;98.80;;;;;;7331254;32;20749;-57
2023/06/02 12:24:53;;;;;;;13.88;5.57;;;20.40;99.90;;;;;;7322811;32;20111;-57
2023/06/02 12:28:56;;;;;;;12.70;5.07;;;20.00;99.70;;;;;;7334325;32;20253;-53
2023/06/02 12:33:12;;;;;;;11.85;4.43;;;20.50;99.70;;;;;;7333198;32;20142;-61
2023/06/02 12:37:17;;;;;;;9.25;5.10;;;21.00;98.40;;;;;;7324221;32;20257;-60
2023/06/02 12:41:20;;;;;;;20.42;8.32;;;20.80;97.80;;;;;;7322140;32;20234;-58
2023/06/02 12:45:21;;;;;;;15.32;5.50;;;20.70;96.70;;;;;;7329235;32;20141;-55
2023/06/02 12:49:25;;;;;;;12.32;4.68;;;20.30;97.90;;;;;;7328989;32;20206;-56
2023/06/02 12:53:27;;;;;;;16.27;6.10;;;20.70;99.00;;;;;;7325108;32;20180;-55
2023/06/02 12:57:29;;;;;;;14.40;4.70;;;20.00;98.60;;;;;;7325411;32;20106;-56
2023/06/02 13:01:31;;;;;;;10.98;4.50;;;20.20;99.00;;;;;;7330707;32;21047;-56
2023/06/02 13:05:35;;;;;;;10.23;4.90;;;20.30;99.90;;;;;;7329567;32;20182;-56
2023/06/02 13:09:37;;;;;;;13.95;4.97;;;20.90;99.00;;;;;;7331179;32;20151;-56
2023/06/02 13:13:40;;;;;;;9.80;4.47;;;20.80;98.90;;;;;;7330058;32;20092;-56
2023/06/02 13:17:42;;;;;;;16.12;4.82;;;20.70;99.50;;;;;;7329343;32;20499;-56
2023/06/02 13:21:45;;;;;;;12.43;5.07;;;20.20;99.90;;;;;;7326578;32;20199;-55
2023/06/02 13:25:48;;;;;;;9.30;4.25;;;20.20;99.70;;;;;;7328899;32;20491;-55
2023/06/02 13:29:50;;;;;;;12.88;5.50;;;20.10;99.90;;;;;;7319259;32;20099;-56
2023/06/02 13:33:52;;;;;;;12.30;4.20;;;20.10;99.90;;;;;;7322637;32;20224;-56
2023/06/02 13:37:54;;;;;;;11.63;4.25;;;20.30;99.90;;;;;;7329892;32;20103;-56
2023/06/02 13:41:56;;;;;;;13.40;4.37;;;20.00;99.00;;;;;;7321995;32;20134;-55
2023/06/02 13:45:58;;;;;;;8.23;3.83;;;20.50;99.90;;;;;;7324226;32;20686;-55
2023/06/02 13:49:59;;;;;;;8.90;3.62;;;19.80;99.90;;;;;;7306062;32;20135;-57
2023/06/02 13:54:01;;;;;;;13.40;4.30;;;20.30;99.90;;;;;;7324339;32;20100;-56
2023/06/02 13:58:03;;;;;;;10.32;4.35;;;20.20;99.90;;;;;;7312377;32;20130;-56
2023/06/02 14:02:06;;;;;;;15.27;4.80;;;20.10;99.70;;;;;;7325594;32;20257;-56
2023/06/02 14:06:07;;;;;;;11.43;4.20;;;19.50;99.90;;;;;;7326479;32;20119;-56
2023/06/02 14:10:10;;;;;;;13.07;4.37;;;20.00;99.90;;;;;;7331151;32;20127;-55
2023/06/02 14:14:12;;;;;;;13.68;4.03;;;19.70;99.90;;;;;;7334211;32;20472;-57
2023/06/02 14:18:14;;;;;;;11.05;3.87;;;20.20;99.90;;;;;;7325037;32;20452;-56
2023/06/02 14:22:16;;;;;;;11.70;3.90;;;20.30;98.90;;;;;;7331830;32;20470;-56
2023/06/02 14:26:18;;;;;;;9.57;3.85;;;20.40;99.90;;;;;;7327005;32;20104;-57
2023/06/02 14:30:20;;;;;;;10.23;3.83;;;21.20;98.20;;;;;;7326648;32;20813;-57
2023/06/02 14:34:22;;;;;;;10.45;3.40;;;20.90;96.60;;;;;;7311248;32;20142;-58
2023/06/02 14:38:24;;;;;;;9.70;3.30;;;21.50;96.40;;;;;;7326062;32;20118;-55
2023/06/02 14:42:26;;;;;;;12.57;3.62;;;21.70;96.20;;;;;;7313221;32;20194;-57
2023/06/02 14:46:28;;;;;;;11.88;3.45;;;20.40;98.10;;;;;;7329403;32;20129;-56
2023/06/02 14:50:31;;;;;;;9.93;3.78;;;21.60;98.20;;;;;;7322907;32;20187;-56
2023/06/02 14:54:33;;;;;;;13.25;3.85;;;22.00;94.10;;;;;;7329372;32;20178;-55
2023/06/02 14:58:35;;;;;;;12.35;3.62;;;21.70;93.40;;;;;;7328646;32;20168;-56
2023/06/02 15:02:36;;;;;;;10.98;3.30;;;22.10;94.30;;;;;;7324940;32;20122;-55
2023/06/02 15:06:40;;;;;;;11.25;3.65;;;23.20;92.90;;;;;;7325646;32;20193;-55
2023/06/02 15:10:42;;;;;;;11.85;3.80;;;22.00;92.70;;;;;;7326038;32;20123;-54
2023/06/02 15:14:47;;;;;;;9.82;3.42;;;21.50;95.40;;;;;;7329099;32;20202;-55
2023/06/02 15:18:49;;;;;;;12.27;3.75;;;21.30;94.50;;;;;;7322638;32;20092;-54
2023/06/02 15:22:55;;;;;;;9.13;3.60;;;20.40;95.60;;;;;;7338292;32;20881;-56
2023/06/02 15:26:57;;;;;;;8.30;3.70;;;19.20;98.60;;;;;;7323687;32;20127;-55
2023/06/02 15:30:59;;;;;;;9.68;3.50;;;18.70;99.90;;;;;;7332471;32;20317;-55
2023/06/02 15:35:03;;;;;;;10.50;3.83;;;18.50;99.90;;;;;;7329039;32;20238;-56
2023/06/02 15:39:05;;;;;;;12.68;3.12;;;18.20;99.90;;;;;;7327851;32;20100;-54
2023/06/02 15:43:07;;;;;;;13.27;3.17;;;18.40;99.90;;;;;;7320649;32;20693;-57
2023/06/02 15:47:09;;;;;;;9.05;2.85;;;18.70;99.90;;;;;;7331600;32;20111;-56
2023/06/02 15:51:11;;;;;;;13.40;3.03;;;18.10;99.90;;;;;;7326033;32;20709;-57
2023/06/02 15:55:13;;;;;;;11.88;3.17;;;18.00;99.90;;;;;;7325465;32;20174;-56
2023/06/02 15:59:16;;;;;;;9.70;2.83;;;18.10;99.90;;;;;;7325201;32;20122;-57
2023/06/02 16:03:17;;;;;;;9.25;2.95;;;18.00;99.90;;;;;;7324216;32;20115;-57
2023/06/02 16:07:19;;;;;;;9.75;2.67;;;17.90;99.90;;;;;;7335079;32;20487;-56
2023/06/02 16:11:21;;;;;;;8.82;2.85;;;17.60;99.90;;;;;;7329969;32;20224;-55
2023/06/02 16:15:23;;;;;;;11.43;2.40;;;17.70;99.90;;;;;;7326057;32;20139;-57
2023/06/02 16:19:25;;;;;;;8.60;2.40;;;17.90;99.90;;;;;;7332202;32;20152;-57
2023/06/02 16:23:27;;;;;;;11.93;2.33;;;17.80;99.90;;;;;;7329640;32;20115;-57
2023/06/02 16:27:29;;;;;;;8.35;2.58;;;18.00;99.90;;;;;;7328070;32;20507;-57
2023/06/02 16:31:31;;;;;;;8.40;2.40;;;17.80;99.90;;;;;;7325593;32;20127;-57
2023/06/02 16:35:33;;;;;;;9.98;2.83;;;17.80;99.90;;;;;;7315897;32;20120;-57
2023/06/02 16:39:34;;;;;;;13.62;2.65;;;17.70;99.90;;;;;;7328774;32;20465;-57
2023/06/02 16:43:36;;;;;;;8.52;2.42;;;17.70;99.90;;;;;;7326133;32;20416;-57
2023/06/02 16:47:38;;;;;;;5.60;2.15;;;17.70;99.90;;;;;;7332325;32;20484;-56
2023/06/02 16:51:40;;;;;;;10.18;2.45;;;17.60;99.90;;;;;;7328145;32;20087;-57
2023/06/02 16:55:41;;;;;;;9.57;2.40;;;17.70;99.90;;;;;;7326996;32;20246;-57
2023/06/02 16:59:43;;;;;;;7.25;2.30;;;17.70;99.90;;;;;;7323407;32;20249;-57
2023/06/02 17:03:45;;;;;;;5.87;1.87;;;17.80;99.90;;;;;;7323975;32;20116;-58
2023/06/02 17:07:47;;;;;;;7.40;2.10;;;17.80;99.90;;;;;;7326575;32;20205;-57
2023/06/02 17:11:49;;;;;;;6.40;2.00;;;17.80;99.90;;;;;;7323756;32;20231;-57
2023/06/02 17:15:51;;;;;;;4.30;1.80;;;17.70;99.90;;;;;;7313034;32;20829;-57
2023/06/02 17:19:53;;;;;;;5.82;2.17;;;17.70;99.90;;;;;;7313819;32;20236;-56
2023/06/02 17:23:55;;;;;;;8.50;2.40;;;17.50;99.90;;;;;;7327244;32;20103;-57
2023/06/02 17:27:57;;;;;;;10.02;2.10;;;17.40;99.90;;;;;;7328228;32;20111;-57
2023/06/02 17:31:59;;;;;;;7.60;2.20;;;17.40;99.90;;;;;;7334724;32;20220;-57
2023/06/02 17:36:01;;;;;;;8.13;2.00;;;17.40;99.90;;;;;;7333523;32;20134;-57
2023/06/02 17:40:03;;;;;;;9.82;3.22;;;17.50;99.90;;;;;;7342877;32;20446;-58
2023/06/02 17:44:06;;;;;;;8.40;2.40;;;17.50;99.90;;;;;;7340511;32;20183;-58
2023/06/02 17:48:08;;;;;;;5.10;2.00;;;17.50;99.90;;;;;;7335033;32;20103;-57
2023/06/02 17:52:10;;;;;;;6.22;2.05;;;17.40;99.90;;;;;;7332717;32;20496;-58
2023/06/02 17:56:12;;;;;;;6.60;1.65;;;17.40;99.90;;;;;;7327025;32;20146;-56
2023/06/02 18:00:15;;;;;;;6.50;2.37;;;17.40;99.90;;;;;;7316980;32;20166;-57
2023/06/02 18:04:17;;;;;;;8.25;2.47;;;17.40;99.90;;;;;;7331978;32;20245;-57
2023/06/02 18:08:19;;;;;;;8.70;2.62;;;17.30;99.90;;;;;;7329892;32;20095;-57
2023/06/02 18:12:21;;;;;;;8.40;2.12;;;17.20;99.90;;;;;;7332603;32;20570;-56
2023/06/02 18:16:22;;;;;;;7.97;2.67;;;17.20;99.90;;;;;;7331396;32;20168;-57
2023/06/02 18:20:24;;;;;;;9.35;1.92;;;17.20;99.90;;;;;;7330641;32;20162;-56
2023/06/02 18:24:26;;;;;;;8.18;2.20;;;17.20;99.90;;;;;;7336763;32;20277;-58
2023/06/02 18:28:28;;;;;;;7.85;2.30;;;17.10;99.90;;;;;;7327660;32;20127;-57
2023/06/02 18:32:29;;;;;;;7.00;2.22;;;17.00;99.90;;;;;;7334918;32;20183;-58
2023/06/02 18:36:31;;;;;;;8.20;2.67;;;17.00;99.90;;;;;;7331108;32;20463;-58
2023/06/02 18:40:33;;;;;;;6.07;2.22;;;17.00;99.90;;;;;;7326656;32;20269;-57
2023/06/02 18:44:35;;;;;;;5.90;2.28;;;16.90;99.90;;;;;;7334139;32;20154;-57
2023/06/02 18:48:37;;;;;;;8.68;2.25;;;16.80;99.90;;;;;;7312564;32;20552;-57
2023/06/02 18:52:39;;;;;;;7.18;1.80;;;16.80;99.90;;;;;;7334140;32;20226;-56
2023/06/02 18:56:41;;;;;;;5.37;2.35;;;16.60;99.90;;;;;;7329051;32;20214;-57
2023/06/02 19:00:42;;;;;;;7.45;1.90;;;16.60;99.90;;;;;;7333313;32;20145;-54
2023/06/02 19:04:44;;;;;;;4.35;2.30;;;16.50;99.90;;;;;;7335214;32;20569;-57
2023/06/02 19:08:46;;;;;;;6.65;2.10;;;16.50;99.90;;;;;;7332474;32;20138;-57
2023/06/02 19:12:48;;;;;;;6.90;3.08;;;16.40;99.90;;;;;;7329028;32;20132;-57
2023/06/02 19:16:50;;;;;;;9.07;2.22;;;16.20;99.90;;;;;;7332492;32;20166;-55
2023/06/02 19:20:56;;;;;;;9.45;2.80;;;16.10;99.90;;;;;;7321534;32;20423;-56
2023/06/02 19:24:58;;;;;;;7.12;2.35;;;16.00;99.90;;;;;;7330679;32;20292;-56
2023/06/02 19:29:00;;;;;;;8.40;2.25;;;15.80;99.90;;;;;;7333705;32;20111;-57
2023/06/02 19:33:03;;;;;;;6.03;2.03;;;15.70;99.90;;;;;;7331108;32;20138;-57
2023/06/02 19:37:06;;;;;;;5.82;2.17;;;15.60;99.90;;;;;;7327752;32;20181;-56
2023/06/02 19:41:08;;;;;;;6.00;2.97;;;15.40;99.90;;;;;;7330909;32;20136;-56
2023/06/02 19:45:10;;;;;;;12.75;7.35;;;15.20;99.90;;;;;;7335735;32;20127;-56
2023/06/02 19:49:12;;;;;;;5.57;3.05;;;15.10;99.90;;;;;;7337711;32;20240;-55
2023/06/02 19:53:14;;;;;;;7.87;2.30;;;14.90;99.90;;;;;;7333949;32;20136;-55
2023/06/02 19:57:15;;;;;;;5.75;2.58;;;14.70;99.90;;;;;;7318048;32;20266;-54
2023/06/02 20:01:17;;;;;;;7.68;2.70;;;14.50;99.90;;;;;;7309183;32;20173;-54
2023/06/02 20:05:21;;;;;;;9.20;2.60;;;14.30;99.90;;;;;;7330944;32;20123;-54
2023/06/02 20:09:23;;;;;;;6.05;2.33;;;14.10;99.90;;;;;;7331395;32;20125;-53
2023/06/02 20:13:25;;;;;;;6.57;2.62;;;14.00;99.90;;;;;;7330445;32;20159;-54
2023/06/02 20:17:27;;;;;;;8.65;3.45;;;13.70;99.90;;;;;;7330040;32;20186;-54
2023/06/02 20:21:30;;;;;;;8.63;3.58;;;13.50;99.90;;;;;;7331503;32;20217;-55
2023/06/02 20:25:31;;;;;;;9.90;3.35;;;13.30;99.90;;;;;;7327585;32;20255;-55
2023/06/02 20:29:33;;;;;;;9.65;3.53;;;13.30;99.90;;;;;;7326240;32;20107;-55
2023/06/02 20:33:35;;;;;;;11.12;4.25;;;13.00;99.90;;;;;;7326248;32;20124;-55
2023/06/02 20:37:37;;;;;;;8.68;3.65;;;12.90;99.90;;;;;;7327399;32;20195;-56
2023/06/02 20:41:39;;;;;;;10.77;3.60;;;12.70;99.90;;;;;;7332332;32;20176;-56
2023/06/02 20:45:40;;;;;;;10.55;3.03;;;12.60;99.90;;;;;;7330871;32;20100;-55
2023/06/02 20:49:42;;;;;;;9.10;3.30;;;12.50;99.90;;;;;;7308337;32;20099;-56
2023/06/02 20:53:44;;;;;;;9.43;3.30;;;12.30;99.90;;;;;;7325229;32;20112;-55